createdAt,value
2019-05-23T00:01:53.067Z,14.07
2019-05-23T00:03:33.378Z,14.17
2019-05-23T00:05:26.927Z,13.67
2019-05-23T00:07:02.613Z,13.00
2019-05-23T00:08:38.441Z,13.00
2019-05-23T00:10:20.051Z,13.43
2019-05-23T00:12:22.482Z,13.20
2019-05-23T00:14:05.630Z,13.80
2019-05-23T00:15:42.917Z,13.27
2019-05-23T00:17:19.066Z,13.47
2019-05-23T00:18:54.256Z,12.87
2019-05-23T00:20:29.631Z,13.63
2019-05-23T00:22:06.310Z,13.03
2019-05-23T00:23:40.746Z,13.17
2019-05-23T00:25:16.749Z,12.57
2019-05-23T00:26:52.950Z,12.97
2019-05-23T00:28:28.208Z,11.90
2019-05-23T00:30:04.569Z,12.97
2019-05-23T00:31:47.631Z,12.10
2019-05-23T00:33:25.934Z,11.97
2019-05-23T00:35:02.138Z,12.63
2019-05-23T00:36:38.646Z,12.10
2019-05-23T00:38:14.589Z,11.60
2019-05-23T00:39:49.622Z,11.87
2019-05-23T00:41:25.434Z,10.83
2019-05-23T00:43:00.425Z,11.27
2019-05-23T00:44:36.856Z,11.53
2019-05-23T00:46:12.737Z,11.70
2019-05-23T00:47:47.841Z,11.00
2019-05-23T00:49:25.251Z,10.73
2019-05-23T00:51:04.887Z,11.20
2019-05-23T00:52:39.058Z,10.50
2019-05-23T00:54:14.677Z,12.20
2019-05-23T00:55:49.906Z,10.83
2019-05-23T00:57:24.854Z,10.87
2019-05-23T00:59:00.372Z,10.40
2019-05-23T01:00:36.926Z,10.00
2019-05-23T01:02:13.054Z,9.40
2019-05-23T01:03:48.854Z,9.47
2019-05-23T01:05:25.045Z,10.03
2019-05-23T01:06:59.578Z,9.23
2019-05-23T01:08:35.792Z,8.97
2019-05-23T01:10:11.291Z,9.67
2019-05-23T01:11:47.283Z,9.20
2019-05-23T01:13:23.383Z,8.87
2019-05-23T01:14:58.849Z,8.60
2019-05-23T01:16:34.050Z,8.50
2019-05-23T01:18:11.174Z,8.73
2019-05-23T01:19:46.267Z,9.30
2019-05-23T01:21:30.673Z,8.23
2019-05-23T01:23:07.555Z,8.63
2019-05-23T01:24:44.032Z,8.37
2019-05-23T01:26:19.389Z,9.23
2019-05-23T01:27:54.317Z,8.60
2019-05-23T01:29:37.659Z,8.70
2019-05-23T01:31:11.409Z,9.40
2019-05-23T01:32:48.509Z,9.03
2019-05-23T01:34:24.899Z,8.33
2019-05-23T01:36:00.023Z,8.17
2019-05-23T01:37:34.661Z,8.10
2019-05-23T01:39:12.342Z,8.10
2019-05-23T01:40:47.326Z,7.97
2019-05-23T01:42:22.970Z,8.90
2019-05-23T01:43:58.795Z,8.57
2019-05-23T01:45:34.957Z,8.20
2019-05-23T01:47:10.403Z,8.00
2019-05-23T01:48:45.563Z,8.23
2019-05-23T01:50:25.721Z,8.40
2019-05-23T01:52:02.212Z,8.23
2019-05-23T01:53:37.413Z,8.37
2019-05-23T01:55:13.528Z,8.20
2019-05-23T01:56:49.297Z,8.73
2019-05-23T01:58:24.581Z,8.00
2019-05-23T02:00:09.943Z,8.13
2019-05-23T02:01:37.571Z,7.97
2019-05-23T02:03:12.940Z,8.03
2019-05-23T02:04:49.143Z,7.70
2019-05-23T02:06:24.334Z,7.33
2019-05-23T02:07:59.490Z,7.77
2019-05-23T02:09:34.585Z,8.00
2019-05-23T02:11:10.651Z,8.23
2019-05-23T02:12:45.217Z,7.70
2019-05-23T02:14:21.976Z,7.97
2019-05-23T02:15:56.986Z,7.93
2019-05-23T02:17:33.343Z,7.40
2019-05-23T02:19:08.541Z,7.70
2019-05-23T02:20:44.695Z,8.13
2019-05-23T02:22:19.172Z,8.47
2019-05-23T02:23:55.262Z,8.17
2019-05-23T02:25:30.467Z,8.63
2019-05-23T02:27:06.004Z,8.23
2019-05-23T02:28:41.529Z,8.27
2019-05-23T02:30:33.144Z,8.37
2019-05-23T02:31:55.105Z,8.53
2019-05-23T02:33:30.907Z,8.20
2019-05-23T02:35:08.455Z,7.70
2019-05-23T02:36:48.772Z,7.97
2019-05-23T02:38:35.102Z,7.00
2019-05-23T02:40:27.538Z,7.63
2019-05-23T02:42:11.816Z,7.93
2019-05-23T02:43:51.601Z,8.20
2019-05-23T02:45:33.909Z,7.80
2019-05-23T02:47:27.784Z,7.90
2019-05-23T02:49:05.186Z,8.57
2019-05-23T02:50:50.477Z,7.87
2019-05-23T02:52:41.334Z,8.07
2019-05-23T02:54:18.435Z,7.83
2019-05-23T02:55:57.924Z,7.97
2019-05-23T02:57:34.285Z,7.93
2019-05-23T02:59:15.535Z,7.93
2019-05-23T03:01:03.629Z,8.20
2019-05-23T03:02:56.450Z,8.17
2019-05-23T03:04:31.856Z,7.90
2019-05-23T03:06:12.703Z,8.53
2019-05-23T03:07:48.025Z,8.23
2019-05-23T03:09:26.906Z,8.53
2019-05-23T03:11:12.539Z,8.47
2019-05-23T03:12:50.373Z,8.50
2019-05-23T03:14:26.377Z,9.27
2019-05-23T03:16:02.589Z,8.70
2019-05-23T03:17:42.993Z,9.13
2019-05-23T03:19:37.307Z,9.10
2019-05-23T03:21:14.195Z,9.20
2019-05-23T03:23:12.359Z,8.27
2019-05-23T03:24:48.783Z,9.23
2019-05-23T03:27:01.323Z,9.23
2019-05-23T03:28:43.238Z,8.50
2019-05-23T03:30:24.597Z,9.27
2019-05-23T03:32:11.638Z,8.53
2019-05-23T03:33:47.819Z,9.30
2019-05-23T03:35:38.550Z,8.87
2019-05-23T03:37:15.840Z,8.47
2019-05-23T03:38:51.193Z,8.30
2019-05-23T03:40:26.456Z,8.37
2019-05-23T03:42:01.153Z,8.87
2019-05-23T03:43:37.082Z,8.27
2019-05-23T03:45:15.033Z,8.20
2019-05-23T03:46:52.596Z,8.10
2019-05-23T03:48:28.164Z,8.80
2019-05-23T03:50:03.267Z,8.50
2019-05-23T03:51:37.874Z,8.53
2019-05-23T03:53:13.481Z,7.83
2019-05-23T03:54:49.763Z,8.00
2019-05-23T03:56:25.485Z,8.00
2019-05-23T03:58:00.949Z,8.53
2019-05-23T03:59:36.284Z,7.70
2019-05-23T04:01:12.698Z,8.03
2019-05-23T04:02:49.523Z,7.87
2019-05-23T04:04:24.228Z,7.37
2019-05-23T04:05:59.357Z,7.50
2019-05-23T04:07:33.931Z,8.03
2019-05-23T04:09:10.370Z,7.50
2019-05-23T04:10:45.850Z,7.07
2019-05-23T04:12:20.869Z,8.27
2019-05-23T04:13:55.551Z,7.43
2019-05-23T04:15:31.187Z,7.37
2019-05-23T04:17:06.510Z,8.10
2019-05-23T04:18:42.032Z,7.47
2019-05-23T04:20:17.038Z,7.50
2019-05-23T04:21:52.695Z,7.50
2019-05-23T04:23:27.083Z,7.73
2019-05-23T04:25:02.737Z,8.00
2019-05-23T04:26:37.399Z,7.17
2019-05-23T04:28:13.321Z,8.07
2019-05-23T04:29:48.043Z,7.17
2019-05-23T04:31:23.480Z,7.87
2019-05-23T04:32:58.284Z,7.20
2019-05-23T04:34:33.597Z,6.87
2019-05-23T04:36:08.967Z,7.50
2019-05-23T04:37:44.030Z,7.53
2019-05-23T04:39:19.441Z,7.53
2019-05-23T04:40:54.499Z,7.27
2019-05-23T04:42:29.363Z,7.30
2019-05-23T04:44:05.136Z,7.57
2019-05-23T04:45:40.087Z,7.27
2019-05-23T04:47:15.662Z,6.77
2019-05-23T04:48:51.983Z,7.53
2019-05-23T04:50:28.510Z,7.43
2019-05-23T04:52:03.422Z,7.10
2019-05-23T04:53:38.947Z,7.13
2019-05-23T04:55:15.590Z,7.40
2019-05-23T04:56:50.541Z,7.03
2019-05-23T04:58:26.095Z,6.83
2019-05-23T05:00:01.470Z,6.20
2019-05-23T05:01:37.315Z,6.90
2019-05-23T05:03:17.342Z,6.10
2019-05-23T05:04:49.541Z,5.90
2019-05-23T05:06:25.687Z,5.83
2019-05-23T05:08:00.441Z,7.10
2019-05-23T05:09:35.934Z,6.13
2019-05-23T05:11:10.888Z,6.97
2019-05-23T05:12:46.143Z,6.97
2019-05-23T05:14:21.114Z,6.50
2019-05-23T05:15:56.824Z,6.40
2019-05-23T05:17:32.417Z,6.17
2019-05-23T05:19:08.184Z,6.97
2019-05-23T05:20:42.733Z,6.73
2019-05-23T05:22:18.221Z,6.17
2019-05-23T05:23:53.634Z,7.03
2019-05-23T05:25:30.209Z,6.17
2019-05-23T05:27:07.037Z,6.60
2019-05-23T05:28:42.693Z,5.60
2019-05-23T05:30:18.374Z,6.17
2019-05-23T05:31:54.277Z,6.13
2019-05-23T05:33:29.666Z,6.53
2019-05-23T05:35:04.855Z,6.27
2019-05-23T05:36:39.728Z,6.13
2019-05-23T05:38:16.226Z,6.50
2019-05-23T05:39:51.169Z,6.03
2019-05-23T05:41:26.908Z,6.50
2019-05-23T05:43:02.239Z,6.23
2019-05-23T05:44:38.135Z,5.73
2019-05-23T05:46:12.687Z,5.93
2019-05-23T05:47:48.006Z,6.30
2019-05-23T05:49:22.898Z,5.90
2019-05-23T05:51:02.406Z,5.53
2019-05-23T05:52:37.878Z,5.27
2019-05-23T05:54:12.901Z,6.00
2019-05-23T05:55:47.638Z,5.80
2019-05-23T05:57:23.274Z,5.67
2019-05-23T05:58:58.122Z,6.10
2019-05-23T06:00:54.827Z,5.90
2019-05-23T06:02:29.518Z,5.50
2019-05-23T06:04:04.980Z,4.80
2019-05-23T06:05:48.289Z,5.60
2019-05-23T06:07:30.338Z,5.17
2019-05-23T06:09:16.725Z,5.20
2019-05-23T06:10:52.095Z,5.53
2019-05-23T06:12:27.090Z,5.50
2019-05-23T06:14:02.589Z,6.13
2019-05-23T06:15:37.554Z,5.63
2019-05-23T06:17:15.179Z,4.83
2019-05-23T06:18:49.561Z,5.50
2019-05-23T06:20:24.863Z,5.10
2019-05-23T06:22:00.226Z,5.20
2019-05-23T06:23:35.582Z,5.00
2019-05-23T06:25:11.847Z,5.10
2019-05-23T06:26:47.302Z,4.93
2019-05-23T06:28:21.892Z,4.93
2019-05-23T06:29:56.908Z,5.23
2019-05-23T06:31:32.004Z,4.90
2019-05-23T06:33:21.802Z,5.23
2019-05-23T06:34:43.431Z,5.40
2019-05-23T06:36:18.757Z,4.73
2019-05-23T06:37:53.580Z,5.20
2019-05-23T06:39:29.029Z,5.07
2019-05-23T06:41:06.631Z,4.90
2019-05-23T06:42:42.529Z,4.93
2019-05-23T06:44:18.921Z,5.30
2019-05-23T06:45:55.350Z,5.10
2019-05-23T06:47:31.144Z,5.23
2019-05-23T06:49:07.124Z,5.10
2019-05-23T06:50:41.957Z,5.10
2019-05-23T06:52:18.254Z,5.30
2019-05-23T06:53:54.377Z,5.43
2019-05-23T06:55:30.135Z,5.10
2019-05-23T06:57:05.371Z,5.17
2019-05-23T06:58:41.830Z,4.63
2019-05-23T07:00:20.186Z,4.77
2019-05-23T07:01:56.055Z,4.60
2019-05-23T07:03:41.175Z,4.77
2019-05-23T07:05:07.622Z,4.57
2019-05-23T07:06:42.311Z,4.37
2019-05-23T07:08:17.724Z,4.03
2019-05-23T07:09:52.166Z,4.93
2019-05-23T07:11:27.190Z,4.33
2019-05-23T07:13:02.178Z,4.33
2019-05-23T07:14:37.980Z,4.73
2019-05-23T07:16:12.930Z,4.70
2019-05-23T07:17:48.155Z,4.80
2019-05-23T07:19:22.522Z,5.00
2019-05-23T07:20:58.258Z,4.77
2019-05-23T07:22:32.937Z,4.97
2019-05-23T07:24:08.268Z,5.53
2019-05-23T07:25:42.763Z,5.30
2019-05-23T07:27:19.295Z,5.17
2019-05-23T07:28:54.253Z,4.67
2019-05-23T07:30:29.426Z,4.70
2019-05-23T07:32:10.050Z,5.00
2019-05-23T07:34:00.506Z,5.83
2019-05-23T07:35:22.081Z,5.50
2019-05-23T07:36:57.542Z,4.67
2019-05-23T07:38:31.973Z,4.90
2019-05-23T07:40:07.522Z,5.10
2019-05-23T07:41:42.248Z,5.20
2019-05-23T07:43:17.436Z,4.90
2019-05-23T07:44:53.461Z,4.90
2019-05-23T07:46:28.562Z,5.00
2019-05-23T07:48:04.308Z,4.97
2019-05-23T07:49:39.302Z,4.93
2019-05-23T07:51:14.205Z,5.40
2019-05-23T07:52:49.526Z,5.00
2019-05-23T07:54:29.605Z,5.40
2019-05-23T07:56:13.384Z,5.10
2019-05-23T07:57:48.515Z,6.07
2019-05-23T07:59:23.096Z,5.50
2019-05-23T08:01:00.677Z,5.73
2019-05-23T08:02:39.010Z,5.80
2019-05-23T08:04:21.823Z,6.07
2019-05-23T08:05:52.175Z,6.30
2019-05-23T08:07:32.467Z,5.97
2019-05-23T08:09:07.215Z,6.47
2019-05-23T08:10:42.167Z,6.57
2019-05-23T08:12:17.170Z,7.00
2019-05-23T08:13:52.738Z,6.87
2019-05-23T08:15:28.181Z,6.83
2019-05-23T08:17:04.054Z,7.97
2019-05-23T08:18:38.771Z,8.37
2019-05-23T08:20:14.208Z,9.03
2019-05-23T08:21:48.749Z,9.20
2019-05-23T08:23:23.790Z,8.80
2019-05-23T08:24:58.223Z,8.80
2019-05-23T08:26:34.886Z,8.93
2019-05-23T08:28:09.954Z,9.37
2019-05-23T08:29:45.885Z,9.23
2019-05-23T08:31:21.768Z,9.17
2019-05-23T08:32:56.892Z,9.47
2019-05-23T08:34:41.558Z,9.33
2019-05-23T08:36:09.850Z,9.57
2019-05-23T08:37:44.530Z,9.20
2019-05-23T08:39:20.647Z,9.30
2019-05-23T08:40:56.982Z,8.90
2019-05-23T08:42:33.817Z,8.83
2019-05-23T08:44:11.415Z,8.30
2019-05-23T08:45:47.274Z,8.77
2019-05-23T08:47:23.587Z,8.70
2019-05-23T08:49:00.841Z,8.70
2019-05-23T08:50:35.714Z,8.17
2019-05-23T08:52:11.419Z,8.70
2019-05-23T08:53:46.655Z,7.87
2019-05-23T08:55:24.809Z,7.33
2019-05-23T08:56:59.848Z,8.40
2019-05-23T08:58:35.504Z,8.03
2019-05-23T09:00:10.691Z,8.00
2019-05-23T09:01:47.177Z,8.40
2019-05-23T09:03:22.492Z,7.10
2019-05-23T09:05:05.576Z,7.33
2019-05-23T09:06:35.403Z,8.27
2019-05-23T09:08:16.519Z,8.23
2019-05-23T09:09:49.837Z,7.93
2019-05-23T09:11:26.951Z,7.00
2019-05-23T09:13:02.535Z,7.77
2019-05-23T09:14:38.346Z,7.83
2019-05-23T09:16:13.374Z,8.47
2019-05-23T09:17:53.894Z,7.10
2019-05-23T09:19:25.743Z,7.23
2019-05-23T09:21:01.604Z,7.70
2019-05-23T09:22:36.953Z,6.97
2019-05-23T09:24:12.017Z,6.33
2019-05-23T09:25:47.643Z,6.33
2019-05-23T09:27:22.723Z,6.60
2019-05-23T09:28:57.673Z,6.50
2019-05-23T09:30:33.326Z,5.87
2019-05-23T09:32:08.788Z,5.50
2019-05-23T09:33:43.970Z,5.30
2019-05-23T09:35:21.334Z,6.00
2019-05-23T09:36:55.289Z,5.37
2019-05-23T09:38:30.464Z,6.50
2019-05-23T09:40:07.343Z,6.20
2019-05-23T09:41:42.801Z,6.80
2019-05-23T09:43:18.530Z,6.33
2019-05-23T09:44:53.706Z,7.10
2019-05-23T09:46:29.556Z,6.83
2019-05-23T09:48:04.791Z,6.10
2019-05-23T09:49:40.688Z,6.37
2019-05-23T09:51:15.912Z,6.60
2019-05-23T09:52:51.476Z,6.37
2019-05-23T09:54:27.114Z,6.10
2019-05-23T09:56:03.216Z,5.10
2019-05-23T09:57:38.299Z,5.53
2019-05-23T09:59:14.768Z,5.97
2019-05-23T10:00:49.658Z,4.73
2019-05-23T10:02:25.735Z,5.70
2019-05-23T10:04:00.925Z,6.80
2019-05-23T10:05:43.197Z,6.90
2019-05-23T10:07:13.996Z,6.93
2019-05-23T10:08:49.673Z,6.03
2019-05-23T10:10:24.606Z,4.77
2019-05-23T10:12:00.322Z,4.23
2019-05-23T10:13:39.083Z,4.97
2019-05-23T10:15:18.877Z,5.23
2019-05-23T10:16:54.436Z,5.80
2019-05-23T10:18:29.384Z,5.73
2019-05-23T10:20:06.082Z,5.73
2019-05-23T10:21:41.174Z,4.50
2019-05-23T10:23:16.881Z,4.83
2019-05-23T10:24:51.990Z,5.10
2019-05-23T10:26:27.710Z,5.10
2019-05-23T10:28:02.608Z,5.77
2019-05-23T10:29:38.215Z,5.07
2019-05-23T10:31:13.225Z,5.03
2019-05-23T10:32:49.102Z,4.70
2019-05-23T10:34:23.991Z,4.10
2019-05-23T10:36:01.168Z,4.40
2019-05-23T10:37:36.248Z,4.83
2019-05-23T10:39:14.608Z,4.17
2019-05-23T10:40:49.714Z,5.03
2019-05-23T10:42:28.833Z,4.77
2019-05-23T10:44:04.007Z,4.80
2019-05-23T10:45:39.705Z,4.87
2019-05-23T10:47:14.685Z,4.23
2019-05-23T10:48:50.690Z,4.50
2019-05-23T10:50:25.827Z,4.93
2019-05-23T10:52:01.503Z,4.17
2019-05-23T10:53:36.269Z,4.60
2019-05-23T10:55:11.395Z,4.90
2019-05-23T10:56:46.049Z,4.97
2019-05-23T10:58:22.253Z,4.60
2019-05-23T10:59:57.876Z,5.20
2019-05-23T11:01:33.947Z,4.30
2019-05-23T11:03:09.329Z,4.10
2019-05-23T11:04:45.050Z,3.90
2019-05-23T11:06:20.379Z,4.43
2019-05-23T11:07:56.014Z,4.80
2019-05-23T11:09:37.714Z,4.53
2019-05-23T11:11:13.674Z,5.80
2019-05-23T11:12:45.741Z,5.63
2019-05-23T11:14:21.744Z,5.57
2019-05-23T11:15:56.863Z,5.40
2019-05-23T11:17:33.123Z,4.83
2019-05-23T11:19:10.225Z,5.40
2019-05-23T11:20:46.159Z,5.60
2019-05-23T11:22:22.301Z,5.43
2019-05-23T11:23:58.017Z,5.73
2019-05-23T11:25:33.749Z,6.20
2019-05-23T11:27:09.426Z,6.37
2019-05-23T11:28:44.474Z,5.10
2019-05-23T11:30:27.053Z,4.77
2019-05-23T11:32:03.700Z,4.70
2019-05-23T11:33:38.568Z,5.90
2019-05-23T11:35:14.492Z,5.90
2019-05-23T11:36:49.270Z,5.40
2019-05-23T11:38:26.258Z,5.60
2019-05-23T11:40:01.119Z,6.17
2019-05-23T11:41:37.350Z,5.70
2019-05-23T11:43:12.420Z,6.30
2019-05-23T11:44:47.766Z,5.13
2019-05-23T11:46:31.588Z,4.70
2019-05-23T11:48:06.826Z,5.00
2019-05-23T11:49:42.281Z,5.10
2019-05-23T11:51:19.594Z,6.00
2019-05-23T11:52:56.074Z,5.17
2019-05-23T11:54:32.274Z,5.50
2019-05-23T11:56:07.558Z,5.07
2019-05-23T11:57:42.795Z,5.20
2019-05-23T11:59:17.610Z,4.90
2019-05-23T12:01:38.912Z,5.07
2019-05-23T12:03:13.572Z,5.63
2019-05-23T12:04:48.919Z,5.77
2019-05-23T12:06:26.370Z,5.80
2019-05-23T12:08:02.186Z,5.40
2019-05-23T12:09:36.878Z,4.63
2019-05-23T12:11:11.919Z,6.23
2019-05-23T12:12:46.618Z,5.83
2019-05-23T12:14:21.662Z,6.10
2019-05-23T12:15:56.479Z,6.20
2019-05-23T12:17:32.850Z,5.93
2019-05-23T12:19:08.014Z,5.27
2019-05-23T12:20:43.637Z,5.20
2019-05-23T12:22:18.782Z,5.53
2019-05-23T12:23:54.650Z,6.27
2019-05-23T12:25:31.107Z,6.30
2019-05-23T12:27:07.096Z,5.53
2019-05-23T12:28:42.138Z,5.03
2019-05-23T12:30:19.801Z,5.37
2019-05-23T12:31:54.633Z,5.40
2019-05-23T12:33:29.776Z,5.13
2019-05-23T12:35:10.934Z,6.17
2019-05-23T12:36:42.343Z,5.90
2019-05-23T12:38:17.465Z,5.50
2019-05-23T12:39:54.896Z,5.97
2019-05-23T12:41:29.884Z,5.83
2019-05-23T12:43:05.684Z,5.30
2019-05-23T12:44:43.825Z,5.03
2019-05-23T12:46:19.098Z,4.83
2019-05-23T12:47:58.560Z,5.33
2019-05-23T12:49:47.792Z,5.17
2019-05-23T12:51:25.923Z,5.30
2019-05-23T12:53:00.699Z,5.33
2019-05-23T12:54:36.100Z,5.57
2019-05-23T12:56:11.136Z,5.20
2019-05-23T12:57:46.210Z,5.37
2019-05-23T12:59:21.480Z,5.27
2019-05-23T13:00:59.001Z,5.43
2019-05-23T13:02:34.447Z,5.47
2019-05-23T13:04:10.671Z,5.40
2019-05-23T13:05:45.713Z,5.17
2019-05-23T13:07:35.214Z,5.37
2019-05-23T13:08:58.181Z,5.90
2019-05-23T13:10:34.599Z,5.77
2019-05-23T13:12:09.855Z,6.07
2019-05-23T13:13:45.422Z,6.17
2019-05-23T13:15:21.272Z,5.70
2019-05-23T13:17:00.683Z,5.23
2019-05-23T13:18:33.514Z,6.00
2019-05-23T13:20:10.080Z,5.77
2019-05-23T13:21:45.103Z,5.80
2019-05-23T13:23:21.586Z,5.87
2019-05-23T13:24:56.768Z,6.10
2019-05-23T13:26:32.499Z,5.07
2019-05-23T13:28:07.354Z,5.70
2019-05-23T13:29:43.131Z,5.20
2019-05-23T13:31:18.156Z,4.70
2019-05-23T13:32:53.785Z,4.90
2019-05-23T13:34:28.570Z,4.97
2019-05-23T13:36:04.035Z,5.73
2019-05-23T13:37:52.157Z,4.70
2019-05-23T13:39:15.887Z,5.43
2019-05-23T13:40:50.963Z,4.67
2019-05-23T13:42:26.268Z,5.47
2019-05-23T13:44:01.368Z,5.20
2019-05-23T13:45:37.667Z,5.63
2019-05-23T13:47:12.234Z,5.53
2019-05-23T13:48:47.411Z,5.57
2019-05-23T13:50:21.939Z,4.83
2019-05-23T13:51:56.991Z,4.33
2019-05-23T13:53:31.341Z,5.60
2019-05-23T13:55:06.431Z,5.43
2019-05-23T13:56:41.944Z,4.83
2019-05-23T13:58:17.128Z,5.20
2019-05-23T13:59:51.578Z,4.60
2019-05-23T14:01:26.944Z,5.70
2019-05-23T14:03:01.914Z,5.80
2019-05-23T14:04:36.998Z,4.77
2019-05-23T14:06:12.497Z,4.53
2019-05-23T14:07:47.722Z,4.53
2019-05-23T14:09:23.755Z,4.73
2019-05-23T14:10:58.741Z,5.07
2019-05-23T14:12:33.346Z,4.60
2019-05-23T14:14:09.150Z,5.17
2019-05-23T14:15:46.462Z,5.13
2019-05-23T14:17:26.036Z,5.40
2019-05-23T14:19:00.409Z,4.27
2019-05-23T14:20:35.353Z,4.50
2019-05-23T14:22:10.224Z,4.50
2019-05-23T14:23:45.264Z,5.20
2019-05-23T14:25:20.370Z,5.00
2019-05-23T14:27:01.462Z,4.00
2019-05-23T14:28:36.767Z,4.00
2019-05-23T14:30:29.809Z,4.13
2019-05-23T14:32:22.504Z,5.00
2019-05-23T14:34:02.891Z,5.13
2019-05-23T14:35:37.638Z,4.23
2019-05-23T14:37:17.642Z,4.73
2019-05-23T14:38:54.318Z,5.40
2019-05-23T14:40:29.471Z,5.57
2019-05-23T14:42:13.992Z,5.70
2019-05-23T14:43:49.509Z,5.67
2019-05-23T14:45:43.531Z,5.83
2019-05-23T14:47:45.282Z,5.67
2019-05-23T14:49:24.898Z,5.90
2019-05-23T14:51:17.232Z,5.80
2019-05-23T14:52:53.462Z,4.70
2019-05-23T14:54:33.215Z,5.07
2019-05-23T14:56:09.260Z,5.17
2019-05-23T14:57:43.795Z,5.57
2019-05-23T14:59:19.642Z,4.97
2019-05-23T15:00:55.848Z,6.10
2019-05-23T15:02:31.203Z,5.43
2019-05-23T15:04:06.274Z,5.00
2019-05-23T15:05:41.459Z,5.23
2019-05-23T15:07:16.814Z,5.10
2019-05-23T15:08:52.456Z,5.13
2019-05-23T15:10:28.812Z,5.10
2019-05-23T15:12:05.777Z,4.83
2019-05-23T15:13:40.816Z,4.57
2019-05-23T15:15:16.977Z,4.67
2019-05-23T15:16:51.970Z,3.97
2019-05-23T15:18:28.095Z,4.70
2019-05-23T15:20:03.070Z,4.63
2019-05-23T15:21:37.894Z,4.30
2019-05-23T15:23:12.518Z,4.23
2019-05-23T15:24:47.585Z,4.37
2019-05-23T15:26:23.970Z,4.17
2019-05-23T15:27:59.109Z,3.87
2019-05-23T15:29:33.897Z,3.37
2019-05-23T15:31:09.078Z,3.90
2019-05-23T15:32:44.007Z,3.43
2019-05-23T15:34:18.930Z,3.70
2019-05-23T15:35:54.481Z,3.30
2019-05-23T15:37:29.839Z,3.50
2019-05-23T15:39:10.006Z,3.70
2019-05-23T15:40:43.697Z,3.13
2019-05-23T15:42:18.253Z,2.07
2019-05-23T15:43:53.398Z,2.80
2019-05-23T15:45:29.266Z,2.17
2019-05-23T15:47:04.423Z,2.80
2019-05-23T15:48:40.319Z,8.80
2019-05-23T15:50:16.835Z,2.00
2019-05-23T15:52:01.419Z,1.87
2019-05-23T15:53:44.411Z,2.07
2019-05-23T15:55:36.612Z,2.03
2019-05-23T15:57:16.786Z,2.30
2019-05-23T15:58:59.366Z,2.10
2019-05-23T16:01:02.325Z,1.90
2019-05-23T16:02:43.270Z,1.70
2019-05-23T16:04:20.232Z,1.77
2019-05-23T16:05:55.157Z,1.77
2019-05-23T16:07:31.187Z,1.93
2019-05-23T16:09:25.607Z,1.50
2019-05-23T16:10:46.419Z,1.60
2019-05-23T16:12:20.906Z,1.70
2019-05-23T16:13:56.278Z,1.70
2019-05-23T16:15:30.738Z,1.73
2019-05-23T16:17:08.295Z,1.50
2019-05-23T16:18:42.819Z,1.83
2019-05-23T16:20:18.157Z,1.50
2019-05-23T16:21:52.591Z,1.80
2019-05-23T16:23:28.175Z,1.50
2019-05-23T16:25:02.851Z,1.67
2019-05-23T16:26:38.817Z,1.67
2019-05-23T16:28:13.286Z,1.60
2019-05-23T16:29:48.647Z,1.80
2019-05-23T16:31:23.204Z,1.77
2019-05-23T16:32:58.244Z,1.60
2019-05-23T16:34:33.069Z,1.67
2019-05-23T16:36:08.694Z,1.80
2019-05-23T16:37:43.528Z,2.57
2019-05-23T16:39:19.405Z,2.00
2019-05-23T16:40:54.031Z,2.40
2019-05-23T16:42:29.731Z,2.13
2019-05-23T16:44:04.270Z,3.90
2019-05-23T16:45:39.695Z,2.63
2019-05-23T16:47:14.130Z,5.57
2019-05-23T16:48:49.440Z,8.67
2019-05-23T16:50:23.807Z,3.43
2019-05-23T16:51:59.187Z,3.80
2019-05-23T16:53:35.918Z,3.50
2019-05-23T16:55:18.075Z,3.93
2019-05-23T16:57:11.259Z,3.03
2019-05-23T16:58:55.969Z,3.10
2019-05-23T17:00:48.492Z,2.07
2019-05-23T17:02:38.936Z,2.20
2019-05-23T17:04:41.668Z,1.70
2019-05-23T17:06:31.191Z,2.00
2019-05-23T17:08:23.192Z,1.80
2019-05-23T17:10:09.688Z,2.00
2019-05-23T17:11:53.706Z,1.70
2019-05-23T17:13:50.610Z,1.60
2019-05-23T17:15:45.938Z,2.03
2019-05-23T17:17:59.923Z,1.57
2019-05-23T17:19:28.849Z,2.00
2019-05-23T17:21:25.864Z,2.23
2019-05-23T17:23:19.778Z,1.70
2019-05-23T17:25:13.303Z,1.70
2019-05-23T17:27:09.888Z,1.67
2019-05-23T17:28:47.449Z,1.67
2019-05-23T17:30:33.415Z,1.87
2019-05-23T17:32:10.798Z,1.50
2019-05-23T17:33:45.504Z,1.73
2019-05-23T17:35:20.530Z,2.00
2019-05-23T17:36:55.595Z,1.80
2019-05-23T17:38:30.897Z,2.20
2019-05-23T17:40:05.902Z,2.20
2019-05-23T17:41:41.932Z,1.90
2019-05-23T17:43:16.490Z,1.70
2019-05-23T17:45:28.635Z,2.10
2019-05-23T17:47:04.781Z,1.93
2019-05-23T17:48:39.176Z,1.93
2019-05-23T17:50:14.533Z,1.70
2019-05-23T17:51:49.467Z,1.80
2019-05-23T17:53:24.778Z,1.90
2019-05-23T17:55:10.266Z,2.10
2019-05-23T17:56:45.602Z,1.73
2019-05-23T17:58:41.141Z,1.97
2019-05-23T18:00:23.933Z,1.43
2019-05-23T18:01:58.957Z,1.40
2019-05-23T18:03:33.978Z,1.73
2019-05-23T18:05:09.667Z,1.83
2019-05-23T18:06:44.703Z,1.40
2019-05-23T18:08:19.993Z,1.70
2019-05-23T18:10:17.114Z,1.97
2019-05-23T18:11:55.364Z,2.00
2019-05-23T18:13:29.167Z,1.83
2019-05-23T18:15:04.781Z,1.70
2019-05-23T18:16:39.934Z,1.80
2019-05-23T18:18:15.397Z,1.80
2019-05-23T18:19:50.378Z,1.63
2019-05-23T18:21:26.060Z,2.00
2019-05-23T18:23:00.511Z,1.93
2019-05-23T18:24:35.806Z,1.90
2019-05-23T18:26:10.265Z,1.83
2019-05-23T18:27:46.185Z,1.80
2019-05-23T18:29:20.691Z,1.83
2019-05-23T18:31:08.570Z,2.10
2019-05-23T18:32:42.026Z,2.00
2019-05-23T18:34:17.195Z,1.83
2019-05-23T18:35:53.544Z,2.10
2019-05-23T18:37:28.370Z,1.90
2019-05-23T18:39:08.010Z,1.97
2019-05-23T18:40:42.529Z,1.80
2019-05-23T18:42:18.290Z,1.77
2019-05-23T18:43:54.568Z,1.90
2019-05-23T18:45:30.864Z,2.03
2019-05-23T18:47:10.202Z,2.03
2019-05-23T18:48:45.236Z,2.30
2019-05-23T18:50:20.518Z,2.30
2019-05-23T18:51:55.841Z,2.20
2019-05-23T18:53:30.283Z,2.50
2019-05-23T18:55:05.990Z,2.37
2019-05-23T18:56:40.671Z,2.43
2019-05-23T18:58:19.365Z,2.40
2019-05-23T18:59:52.142Z,2.30
2019-05-23T19:01:27.314Z,2.40
2019-05-23T19:03:01.849Z,2.60
2019-05-23T19:04:37.300Z,2.60
2019-05-23T19:06:12.051Z,2.10
2019-05-23T19:07:47.171Z,2.50
2019-05-23T19:09:22.670Z,2.40
2019-05-23T19:10:58.254Z,2.50
2019-05-23T19:12:33.337Z,2.60
2019-05-23T19:14:08.371Z,2.30
2019-05-23T19:15:43.526Z,2.00
2019-05-23T19:17:18.654Z,2.37
2019-05-23T19:18:53.368Z,2.70
2019-05-23T19:20:28.389Z,2.67
2019-05-23T19:22:03.973Z,2.83
2019-05-23T19:23:39.938Z,2.70
2019-05-23T19:25:16.215Z,2.40
2019-05-23T19:26:52.323Z,3.00
2019-05-23T19:28:27.566Z,2.43
2019-05-23T19:30:02.654Z,2.60
2019-05-23T19:31:37.885Z,2.60
2019-05-23T19:33:13.318Z,2.53
2019-05-23T19:34:48.391Z,2.50
2019-05-23T19:36:23.820Z,2.87
2019-05-23T19:37:58.254Z,2.80
2019-05-23T19:39:34.051Z,3.00
2019-05-23T19:41:09.126Z,2.53
2019-05-23T19:42:44.685Z,2.77
2019-05-23T19:44:19.220Z,1.93
2019-05-23T19:45:54.266Z,2.30
2019-05-23T19:47:29.307Z,2.60
2019-05-23T19:49:04.397Z,2.60
2019-05-23T19:50:39.727Z,2.53
2019-05-23T19:52:15.068Z,2.50
2019-05-23T19:53:50.166Z,2.10
2019-05-23T19:55:25.109Z,2.30
2019-05-23T19:56:59.492Z,2.40
2019-05-23T19:58:34.630Z,2.33
2019-05-23T20:00:12.031Z,1.80
2019-05-23T20:02:04.234Z,2.10
2019-05-23T20:03:39.358Z,2.43
2019-05-23T20:05:21.650Z,2.17
2019-05-23T20:06:57.072Z,2.20
2019-05-23T20:08:31.615Z,1.90
2019-05-23T20:10:07.547Z,1.90
2019-05-23T20:11:53.874Z,2.00
2019-05-23T20:13:19.078Z,2.60
2019-05-23T20:14:53.854Z,2.10
2019-05-23T20:16:28.874Z,2.10
2019-05-23T20:18:03.648Z,2.60
2019-05-23T20:19:39.086Z,2.30
2019-05-23T20:21:13.798Z,2.10
2019-05-23T20:22:48.934Z,2.23
2019-05-23T20:24:23.449Z,2.50
2019-05-23T20:25:58.643Z,2.20
2019-05-23T20:27:33.416Z,2.07
2019-05-23T20:29:09.107Z,2.20
2019-05-23T20:30:51.336Z,2.20
2019-05-23T20:32:26.707Z,2.10
2019-05-23T20:34:01.254Z,2.30
2019-05-23T20:35:36.391Z,2.50
2019-05-23T20:37:11.599Z,2.30
2019-05-23T20:38:46.570Z,2.30
2019-05-23T20:40:21.122Z,2.20
2019-05-23T20:42:10.242Z,2.83
2019-05-23T20:43:32.736Z,2.90
2019-05-23T20:45:07.844Z,2.70
2019-05-23T20:46:43.405Z,3.07
2019-05-23T20:48:19.013Z,2.57
2019-05-23T20:49:53.541Z,2.73
2019-05-23T20:51:29.076Z,2.97
2019-05-23T20:53:03.552Z,3.20
2019-05-23T20:54:38.528Z,2.83
2019-05-23T20:56:13.259Z,2.80
2019-05-23T20:57:48.198Z,2.67
2019-05-23T20:59:23.316Z,2.90
2019-05-23T21:01:06.899Z,3.30
2019-05-23T21:02:41.849Z,3.10
2019-05-23T21:04:16.277Z,3.07
2019-05-23T21:05:51.604Z,3.10
2019-05-23T21:07:25.958Z,3.17
2019-05-23T21:09:00.929Z,3.53
2019-05-23T21:10:47.464Z,3.60
2019-05-23T21:12:30.035Z,3.63
2019-05-23T21:13:58.970Z,3.33
2019-05-23T21:15:33.910Z,3.10
2019-05-23T21:17:08.534Z,3.33
2019-05-23T21:18:44.230Z,3.20
2019-05-23T21:20:18.662Z,3.63
2019-05-23T21:21:53.677Z,3.67
2019-05-23T21:23:28.132Z,3.83
2019-05-23T21:25:03.523Z,4.23
2019-05-23T21:26:38.269Z,4.33
2019-05-23T21:28:13.297Z,4.07
2019-05-23T21:29:47.659Z,3.97
2019-05-23T21:31:24.166Z,3.70